Time;durP1;ratioP1;P1;durP2;ratioP2;P2;SDS_P1;SDS_P2;PMS_P1;PMS_P2;Temp;Humidity;BMP_temperature;BMP_pressure;BME280_temperature;BME280_humidity;BME280_pressure;Samples;Min_cycle;Max_cycle;Signal;HPM_P1;HPM_P2
2022/03/02 00:12:10;;;;;;;21.57;13.00;;;;;;;1.30;100.00;98047.09;4960104;28;20071;-88
2022/03/02 00:17:01;;;;;;;31.30;14.77;;;;;;;1.35;100.00;98045.28;4946444;28;20126;-85
2022/03/02 00:24:43;;;;;;;28.80;16.17;;;;;;;1.21;100.00;98042.00;5062283;28;20072;-86
2022/03/02 00:36:52;;;;;;;38.87;19.97;;;;;;;1.27;100.00;98020.81;5055981;28;20036;-85
2022/03/02 00:41:42;;;;;;;60.37;26.60;;;;;;;1.20;100.00;98012.13;5055404;28;20036;-86
2022/03/02 00:49:00;;;;;;;55.67;26.33;;;;;;;1.07;100.00;97985.16;5045844;28;20856;-86
2022/03/02 00:51:27;;;;;;;56.60;27.35;;;;;;;1.29;100.00;98011.13;5035925;28;20029;-87
2022/03/02 00:53:53;;;;;;;66.72;28.60;;;;;;;1.24;100.00;98010.31;5024789;28;20411;-86
2022/03/02 00:56:20;;;;;;;56.83;27.65;;;;;;;1.19;100.00;97999.88;5027326;28;20063;-87
2022/03/02 00:58:45;;;;;;;58.45;27.45;;;;;;;1.32;100.00;97997.91;5057661;28;20107;-87
2022/03/02 01:01:11;;;;;;;53.10;26.70;;;;;;;1.29;100.00;97988.28;5024369;28;20539;-87
2022/03/02 01:03:37;;;;;;;51.03;25.98;;;;;;;1.28;100.00;97986.53;5033922;28;20408;-86
2022/03/02 01:06:03;;;;;;;46.90;24.98;;;;;;;1.25;100.00;97991.00;5029814;28;20036;-87
2022/03/02 01:08:29;;;;;;;49.65;24.67;;;;;;;1.23;100.00;97996.28;5035790;28;20109;-86
2022/03/02 01:10:55;;;;;;;50.33;26.60;;;;;;;1.31;100.00;97999.66;5024105;28;20045;-87
2022/03/02 01:13:21;;;;;;;56.92;25.38;;;;;;;1.12;100.00;97985.06;5021557;28;20029;-89
2022/03/02 01:15:46;;;;;;;52.30;27.02;;;;;;;1.04;100.00;97973.81;5029533;28;20029;-86
2022/03/02 01:18:12;;;;;;;54.03;27.08;;;;;;;1.04;100.00;97981.72;5024223;28;20032;-87
2022/03/02 01:20:38;;;;;;;51.88;26.88;;;;;;;1.10;100.00;97976.34;5027359;28;20415;-87
2022/03/02 01:23:03;;;;;;;53.92;27.20;;;;;;;1.12;100.00;97985.06;5028839;28;20053;-87
2022/03/02 01:25:29;;;;;;;49.70;26.25;;;;;;;1.05;100.00;97980.78;5025835;28;20044;-87
2022/03/02 01:27:55;;;;;;;53.95;26.88;;;;;;;0.98;100.00;97961.63;5026159;28;20040;-86
2022/03/02 01:30:21;;;;;;;87.30;36.13;;;;;;;1.02;100.00;97958.03;5028590;28;20036;-86
2022/03/02 01:32:46;;;;;;;86.97;35.50;;;;;;;1.07;100.00;97971.13;5028432;28;20037;-86
2022/03/02 01:35:12;;;;;;;65.13;28.17;;;;;;;1.08;100.00;97962.31;5033350;28;20028;-87
2022/03/02 01:37:38;;;;;;;57.35;27.67;;;;;;;1.06;100.00;97956.22;5009527;28;20061;-87
2022/03/02 01:40:05;;;;;;;47.40;24.08;;;;;;;0.93;100.00;97957.31;5035316;28;20052;-88
2022/03/02 01:42:31;;;;;;;47.25;23.15;;;;;;;0.88;100.00;97959.16;5024531;28;20028;-88
2022/03/02 01:44:57;;;;;;;38.60;20.45;;;;;;;0.77;100.00;97947.97;5044150;28;20401;-87
2022/03/02 01:47:27;;;;;;;44.35;23.98;;;;;;;0.70;100.00;97941.94;5021305;28;20102;-88
2022/03/02 01:49:53;;;;;;;41.80;22.58;;;;;;;0.72;100.00;97949.78;5022207;28;20513;-88
2022/03/02 01:52:18;;;;;;;45.83;23.75;;;;;;;0.58;100.00;97939.50;5033076;28;20029;-88
2022/03/02 01:54:44;;;;;;;48.83;24.60;;;;;;;0.44;100.00;97934.44;5022013;28;20088;-88
2022/03/02 01:57:10;;;;;;;49.10;24.00;;;;;;;0.44;100.00;97939.72;5029047;28;20025;-88
2022/03/02 01:59:36;;;;;;;48.70;24.35;;;;;;;0.40;100.00;97943.28;5024227;28;20448;-88
2022/03/02 02:02:02;;;;;;;55.17;27.17;;;;;;;0.20;100.00;97921.69;5018373;28;20032;-88
2022/03/02 02:04:28;;;;;;;57.03;28.45;;;;;;;0.07;100.00;97899.09;5035654;28;20029;-87
2022/03/02 02:06:54;;;;;;;59.67;28.60;;;;;;;0.04;100.00;97899.13;5027380;28;20033;-87
2022/03/02 02:09:24;;;;;;;55.45;28.88;;;;;;;0.15;100.00;97931.41;5034777;28;20570;-87
2022/03/02 02:11:49;;;;;;;54.15;27.42;;;;;;;0.00;100.00;97906.19;5001219;28;20029;-87
2022/03/02 02:14:15;;;;;;;55.78;27.45;;;;;;;0.13;100.00;97932.31;5018901;28;20175;-88
2022/03/02 02:16:41;;;;;;;56.00;28.00;;;;;;;0.09;100.00;97918.38;5031392;28;20025;-88
2022/03/02 02:19:06;;;;;;;46.88;24.67;;;;;;;0.17;100.00;97937.50;5031011;28;20025;-88
2022/03/02 02:21:47;;;;;;;46.28;24.58;;;;;;;0.25;100.00;97935.63;5020923;28;20032;-87
2022/03/02 02:24:13;;;;;;;46.03;24.30;;;;;;;0.20;100.00;97941.84;5014383;28;20509;-88
2022/03/02 02:26:39;;;;;;;47.92;23.15;;;;;;;0.24;100.00;97940.94;5021059;28;20025;-88
2022/03/02 02:29:06;;;;;;;45.25;23.65;;;;;;;0.29;100.00;97941.72;5024071;28;20107;-88
2022/03/02 02:31:31;;;;;;;40.47;21.20;;;;;;;0.27;100.00;97944.38;5022456;28;20030;-88
2022/03/02 02:33:57;;;;;;;41.83;21.00;;;;;;;0.22;100.00;97930.41;5025978;28;20033;-88
2022/03/02 02:36:23;;;;;;;45.95;22.10;;;;;;;0.34;100.00;97934.63;5023676;28;20033;-88
2022/03/02 02:38:49;;;;;;;44.55;22.35;;;;;;;0.39;100.00;97936.31;5033668;28;20028;-87
2022/03/02 02:41:16;;;;;;;38.50;19.38;;;;;;;0.37;100.00;97930.16;5028381;28;20036;-87
2022/03/02 02:43:42;;;;;;;37.60;19.27;;;;;;;0.21;100.00;97918.19;5026988;28;20104;-87
2022/03/02 02:46:10;;;;;;;36.72;19.15;;;;;;;0.21;100.00;97918.19;5027842;28;20024;-90
2022/03/02 02:48:35;;;;;;;36.65;19.90;;;;;;;0.29;100.00;97928.56;5034458;28;20037;-88
2022/03/02 02:51:01;;;;;;;35.75;18.83;;;;;;;0.20;100.00;97894.50;5031759;28;20456;-88
2022/03/02 02:53:27;;;;;;;37.80;19.80;;;;;;;0.41;100.00;97933.63;5015915;28;20146;-87
2022/03/02 02:55:53;;;;;;;42.25;21.45;;;;;;;0.51;100.00;97933.47;5016333;28;20097;-88
2022/03/02 02:58:19;;;;;;;50.70;24.77;;;;;;;0.45;100.00;97912.53;5024725;28;20025;-88
2022/03/02 03:00:47;;;;;;;38.58;20.98;;;;;;;0.50;100.00;97913.31;5019134;28;20031;-88
2022/03/02 03:03:24;;;;;;;32.78;18.35;;;;;;;0.52;100.00;97921.19;5036581;28;20156;-87
2022/03/02 03:05:52;;;;;;;37.67;18.80;;;;;;;0.60;100.00;97921.03;5027943;28;20060;-90
2022/03/02 03:08:18;;;;;;;39.63;19.77;;;;;;;0.61;100.00;97922.78;5035602;28;20024;-89
2022/03/02 03:10:45;;;;;;;38.10;19.52;;;;;;;0.41;100.00;97889.78;5034752;28;20385;-88
2022/03/02 03:13:11;;;;;;;36.15;19.02;;;;;;;0.55;100.00;97914.09;5034186;28;20036;-89
2022/03/02 03:15:38;;;;;;;37.92;18.60;;;;;;;0.59;100.00;97919.28;5041551;28;20039;-89
2022/03/02 03:18:04;;;;;;;40.95;20.73;;;;;;;0.59;100.00;97919.28;5012866;28;20025;-88
2022/03/02 03:20:31;;;;;;;43.95;20.52;;;;;;;0.67;100.00;97920.94;5032524;28;20033;-87
2022/03/02 03:22:57;;;;;;;41.65;20.45;;;;;;;0.73;100.00;97925.22;5026044;28;20040;-88
2022/03/02 03:25:24;;;;;;;31.55;17.40;;;;;;;0.78;100.00;97929.50;5034896;28;20459;-86
2022/03/02 03:27:50;;;;;;;33.28;18.05;;;;;;;0.81;100.00;97931.19;5043618;28;20020;-87
2022/03/02 03:30:19;;;;;;;36.40;18.75;;;;;;;0.83;100.00;97926.81;5043042;28;20053;-87
2022/03/02 03:32:46;;;;;;;35.70;19.45;;;;;;;0.84;100.00;97928.50;5028257;28;20029;-87
2022/03/02 03:35:13;;;;;;;36.70;19.13;;;;;;;0.80;100.00;97911.06;5044728;28;20032;-88
2022/03/02 03:37:40;;;;;;;36.92;18.50;;;;;;;0.89;100.00;97929.31;5036357;28;20132;-85
2022/03/02 03:40:07;;;;;;;43.20;21.77;;;;;;;0.80;100.00;97913.69;5030764;28;20048;-88
2022/03/02 03:42:33;;;;;;;42.03;20.73;;;;;;;0.72;100.00;97908.53;5037847;28;20036;-86
2022/03/02 03:45:02;;;;;;;38.83;20.58;;;;;;;0.85;100.00;97923.25;5036473;28;20025;-86
2022/03/02 03:47:28;;;;;;;49.45;23.00;;;;;;;0.77;100.00;97898.78;5030711;28;20032;-88
2022/03/02 03:49:53;;;;;;;33.90;18.55;;;;;;;0.66;100.00;97884.09;5034416;28;20122;-87
2022/03/02 03:52:19;;;;;;;33.60;18.33;;;;;;;0.82;100.00;97914.53;5032961;28;20032;-86
2022/03/02 03:54:44;;;;;;;34.90;17.52;;;;;;;0.72;100.00;97884.84;5052397;28;20068;-86
2022/03/02 03:57:10;;;;;;;28.48;15.02;;;;;;;0.76;100.00;97894.44;5029983;28;20435;-86
2022/03/02 03:59:36;;;;;;;28.92;15.43;;;;;;;0.76;100.00;97893.56;5048267;28;20087;-88
2022/03/02 04:02:01;;;;;;;28.60;15.55;;;;;;;0.77;100.00;97890.91;5040783;28;20056;-87
2022/03/02 04:04:27;;;;;;;30.48;16.05;;;;;;;0.70;100.00;97875.25;5027340;28;20025;-87
2022/03/02 04:06:54;;;;;;;32.10;17.27;;;;;;;0.76;100.00;97890.94;5036001;28;20041;-86
2022/03/02 04:09:19;;;;;;;33.85;17.65;;;;;;;0.81;100.00;97894.34;5037298;28;20032;-86
2022/03/02 04:11:45;;;;;;;32.42;17.38;;;;;;;0.68;100.00;97872.63;5021543;28;20029;-86
2022/03/02 04:14:10;;;;;;;33.40;17.88;;;;;;;0.74;100.00;97890.13;5028007;28;20035;-85
2022/03/02 04:16:36;;;;;;;36.25;18.00;;;;;;;0.70;100.00;97880.53;5031727;28;20029;-87
2022/03/02 04:19:04;;;;;;;38.90;19.60;;;;;;;0.74;100.00;97880.41;5039827;28;20020;-86
2022/03/02 04:21:31;;;;;;;43.53;21.95;;;;;;;0.83;100.00;97888.16;5042835;28;20024;-87
2022/03/02 04:23:56;;;;;;;44.22;22.63;;;;;;;0.74;100.00;97884.84;5031505;28;20097;-87
2022/03/02 04:26:22;;;;;;;45.30;24.23;;;;;;;0.72;100.00;97894.50;5022071;28;20056;-88
2022/03/02 04:28:48;;;;;;;40.50;21.00;;;;;;;0.63;100.00;97887.66;5025240;28;20033;-88
2022/03/02 04:31:13;;;;;;;37.95;19.98;;;;;;;0.64;100.00;97896.41;5058333;28;20042;-88
2022/03/02 04:33:39;;;;;;;37.58;19.67;;;;;;;0.57;100.00;97892.16;5031651;28;20052;-86
2022/03/02 04:36:05;;;;;;;42.67;20.75;;;;;;;0.55;100.00;97897.44;5041214;28;20039;-88
2022/03/02 04:38:31;;;;;;;37.03;20.38;;;;;;;0.50;100.00;97880.84;5038696;28;20044;-88
2022/03/02 04:40:57;;;;;;;47.45;22.90;;;;;;;0.50;100.00;97883.47;5025665;28;20033;-88
2022/03/02 04:43:23;;;;;;;52.33;25.92;;;;;;;0.52;100.00;97882.56;5025767;28;20090;-88
2022/03/02 04:45:48;;;;;;;48.95;24.70;;;;;;;0.44;100.00;97862.53;5043419;28;20039;-87
2022/03/02 04:48:14;;;;;;;50.03;23.30;;;;;;;0.49;100.00;97871.25;5034366;28;20133;-87
2022/03/02 04:50:40;;;;;;;45.63;21.98;;;;;;;0.54;100.00;97875.53;5032839;28;20031;-89
2022/03/02 04:53:05;;;;;;;44.80;22.35;;;;;;;0.48;100.00;97870.38;5032368;28;20051;-87
2022/03/02 04:55:31;;;;;;;68.28;27.63;;;;;;;0.55;100.00;97884.31;5030137;28;20094;-87
2022/03/02 04:57:59;;;;;;;58.50;27.92;;;;;;;0.52;100.00;97876.47;5025837;28;20032;-87
2022/03/02 05:00:33;;;;;;;53.72;25.27;;;;;;;0.51;100.00;97875.59;5036699;28;20044;-85
2022/03/02 05:03:00;;;;;;;47.72;24.75;;;;;;;0.48;100.00;97856.34;5034270;28;20553;-89
2022/03/02 05:05:27;;;;;;;55.28;25.05;;;;;;;0.51;100.00;97875.59;5029094;28;20067;-88
2022/03/02 05:07:53;;;;;;;51.53;25.35;;;;;;;0.61;100.00;97865.78;5026935;28;20028;-88
2022/03/02 05:10:22;;;;;;;51.78;24.40;;;;;;;0.66;100.00;97860.41;5028335;28;20089;-87
2022/03/02 05:12:48;;;;;;;42.67;21.13;;;;;;;0.60;100.00;97857.88;5029214;28;20028;-88
2022/03/02 05:15:15;;;;;;;44.95;22.05;;;;;;;0.53;100.00;97847.47;5039681;28;20084;-88
2022/03/02 05:17:42;;;;;;;54.50;27.02;;;;;;;0.62;100.00;97861.34;5052356;28;20035;-87
2022/03/02 05:20:10;;;;;;;56.60;31.23;;;;;;;0.66;100.00;97858.66;5031067;28;20025;-87
2022/03/02 05:22:36;;;;;;;58.53;28.40;;;;;;;0.56;100.00;97851.81;5022194;28;20111;-86
2022/03/02 05:25:03;;;;;;;62.70;31.55;;;;;;;0.54;100.00;97828.16;5019535;28;20032;-87
2022/03/02 05:27:29;;;;;;;54.55;27.00;;;;;;;0.69;100.00;97834.03;5029862;28;20029;-85
2022/03/02 05:29:55;;;;;;;56.65;27.35;;;;;;;0.72;100.00;97852.41;5051706;28;20521;-87
2022/03/02 05:32:20;;;;;;;55.72;26.27;;;;;;;0.65;100.00;97829.75;5049936;28;20558;-86
2022/03/02 05:34:46;;;;;;;52.63;24.40;;;;;;;0.83;100.00;97855.72;5065610;28;20025;-87
2022/03/02 05:37:12;;;;;;;47.92;24.73;;;;;;;0.92;100.00;97848.50;5039000;28;20009;-89
2022/03/02 05:39:38;;;;;;;49.75;23.50;;;;;;;0.84;100.00;97842.50;5025751;28;20029;-88
2022/03/02 05:42:04;;;;;;;51.22;27.17;;;;;;;0.88;100.00;97843.31;5029059;28;20041;-89
2022/03/02 05:44:30;;;;;;;49.03;25.58;;;;;;;0.98;100.00;97863.31;5027984;28;20028;-75
2022/03/02 05:46:55;;;;;;;56.10;26.60;;;;;;;0.84;100.00;97846.91;5046809;28;20035;-88
2022/03/02 05:49:21;;;;;;;49.20;25.73;;;;;;;0.77;100.00;97829.50;5036168;28;20029;-88
2022/03/02 05:51:47;;;;;;;53.30;26.02;;;;;;;0.98;100.00;97856.31;5025129;28;20415;-88
2022/03/02 05:54:13;;;;;;;47.58;25.23;;;;;;;1.14;100.00;97851.56;5052381;28;20162;-90
2022/03/02 05:56:39;;;;;;;57.75;26.20;;;;;;;1.18;100.00;97858.53;5036364;28;20032;-86
2022/03/02 05:59:09;;;;;;;69.57;32.65;;;;;;;1.32;100.00;97861.75;5031186;28;20132;-89
2022/03/02 06:01:35;;;;;;;69.45;31.52;;;;;;;1.38;100.00;97861.63;5010586;28;20503;-89
2022/03/02 06:04:01;;;;;;;73.78;35.08;;;;;;;1.43;100.00;97862.41;5021190;28;20119;-89
2022/03/02 06:06:29;;;;;;;89.75;34.28;;;;;;;1.24;100.00;97839.97;5033172;28;20028;-89
2022/03/02 06:08:55;;;;;;;71.03;33.58;;;;;;;1.26;100.00;97861.84;5036162;28;20402;-88
2022/03/02 06:11:22;;;;;;;67.75;31.23;;;;;;;1.28;100.00;97844.28;5024621;28;20029;-88
2022/03/02 06:13:47;;;;;;;68.63;33.15;;;;;;;1.31;100.00;97832.81;5043011;28;20025;-87
2022/03/02 06:16:14;;;;;;;86.30;39.60;;;;;;;1.44;100.00;97850.97;5037948;28;20035;-87
2022/03/02 06:18:40;;;;;;;85.90;41.65;;;;;;;1.47;100.00;97845.63;5025799;28;20037;-87
2022/03/02 06:21:06;;;;;;;72.68;36.15;;;;;;;1.57;100.00;97868.22;5036756;28;20097;-88
2022/03/02 06:23:32;;;;;;;154.10;71.18;;;;;;;1.56;100.00;97866.53;5032914;28;20053;-88
2022/03/02 06:25:58;;;;;;;110.22;54.63;;;;;;;1.54;100.00;97860.38;5020128;28;20108;-88
2022/03/02 06:28:26;;;;;;;72.38;38.03;;;;;;;1.22;100.00;97833.88;5025875;28;20052;-88
2022/03/02 06:30:52;;;;;;;66.55;32.47;;;;;;;1.34;100.00;97841.50;5031379;28;20511;-89
2022/03/02 06:33:19;;;;;;;63.28;31.80;;;;;;;1.58;100.00;97855.94;5047146;28;20086;-88
2022/03/02 06:35:46;;;;;;;75.05;33.67;;;;;;;1.70;100.00;97857.41;5026218;28;20143;-89
2022/03/02 06:38:12;;;;;;;80.50;36.92;;;;;;;1.71;100.00;97840.72;5023806;28;20156;-88
2022/03/02 06:40:39;;;;;;;104.50;44.00;;;;;;;1.72;100.00;97840.69;5035009;28;20127;-89
2022/03/02 06:43:15;;;;;;;103.15;42.10;;;;;;;1.84;100.00;97863.28;5027653;28;20038;-89
2022/03/02 06:45:43;;;;;;;88.72;41.03;;;;;;;2.02;100.00;97863.72;5035537;28;20032;-89
2022/03/02 06:48:34;;;;;;;84.65;41.40;;;;;;;2.01;100.00;97858.47;5045525;28;20033;-87
2022/03/02 06:51:01;;;;;;;90.93;42.60;;;;;;;2.01;100.00;97859.34;5051981;28;20574;-88
2022/03/02 06:53:35;;;;;;;96.00;43.17;;;;;;;1.81;100.00;97847.53;5028586;28;20048;-88
2022/03/02 06:56:04;;;;;;;72.53;37.38;;;;;;;1.72;100.00;97853.00;5023241;28;20133;-88
2022/03/02 06:58:54;;;;;;;71.85;35.40;;;;;;;1.66;100.00;97851.38;5027588;28;20049;-88
2022/03/02 07:01:27;;;;;;;76.40;38.00;;;;;;;1.61;100.00;97843.56;5039543;28;20092;-87
2022/03/02 07:03:58;;;;;;;81.47;41.45;;;;;;;1.76;100.00;97833.56;5018301;28;20489;-88
2022/03/02 07:06:25;;;;;;;90.97;42.95;;;;;;;1.73;100.00;97846.81;5026493;28;20450;-88
2022/03/02 07:08:51;;;;;;;96.95;48.72;;;;;;;1.80;100.00;97837.88;5016825;28;20037;-88
2022/03/02 07:11:17;;;;;;;81.35;42.28;;;;;;;1.91;100.00;97831.44;5031501;28;20094;-88
2022/03/02 07:13:44;;;;;;;85.18;42.72;;;;;;;2.08;100.00;97842.47;5018679;28;20056;-88
2022/03/02 07:16:15;;;;;;;82.32;43.60;;;;;;;2.27;100.00;97845.53;5001569;28;20025;-88
2022/03/02 07:21:28;;;;;;;84.32;43.05;;;;;;;2.88;100.00;97830.75;5040464;28;20155;-87
2022/03/02 07:23:54;;;;;;;84.70;40.92;;;;;;;3.18;99.54;97837.81;5016196;28;20534;-87
2022/03/02 07:26:21;;;;;;;87.13;45.20;;;;;;;3.24;97.99;97822.66;5055589;28;20029;-87
2022/03/02 07:28:48;;;;;;;90.82;45.10;;;;;;;3.13;97.82;97832.69;5036068;28;20472;-88
2022/03/02 07:31:17;;;;;;;93.35;47.28;;;;;;;2.90;97.86;97821.00;5020251;28;20033;-88
2022/03/02 07:33:44;;;;;;;93.07;45.88;;;;;;;2.86;98.38;97819.38;5020773;28;20570;-88
2022/03/02 07:36:11;;;;;;;92.95;47.17;;;;;;;2.67;99.84;97817.22;5041268;28;20024;-88
2022/03/02 07:38:38;;;;;;;88.60;44.72;;;;;;;2.80;99.33;97811.63;5032417;28;20040;-88
2022/03/02 07:41:08;;;;;;;98.25;48.17;;;;;;;2.91;100.00;97817.47;5030926;28;20068;-88
2022/03/02 07:43:36;;;;;;;91.80;44.55;;;;;;;3.40;97.48;97817.81;5020707;28;20029;-87
2022/03/02 07:46:04;;;;;;;84.20;41.75;;;;;;;3.52;95.47;97820.09;5011319;28;20024;-88
2022/03/02 07:48:31;;;;;;;93.82;45.35;;;;;;;3.48;95.76;97799.91;5034302;28;20131;-88
2022/03/02 07:50:58;;;;;;;85.43;42.28;;;;;;;3.74;93.09;97812.38;5031231;28;20033;-87
2022/03/02 07:53:26;;;;;;;80.57;43.95;;;;;;;4.02;88.78;97793.84;5021037;28;20411;-88
2022/03/02 07:55:53;;;;;;;91.90;45.90;;;;;;;4.17;88.27;97806.59;5040172;28;20036;-88
2022/03/02 07:58:20;;;;;;;93.28;44.65;;;;;;;4.26;87.34;97814.22;5029302;28;20028;-88
2022/03/02 08:00:48;;;;;;;86.32;44.60;;;;;;;4.34;87.53;97805.09;5030701;28;20123;-87
2022/03/02 08:03:15;;;;;;;92.50;44.45;;;;;;;4.35;86.59;97800.69;5024703;28;20025;-88
2022/03/02 08:05:43;;;;;;;82.15;42.55;;;;;;;4.73;84.07;97810.84;5048269;28;20457;-90
2022/03/02 08:08:10;;;;;;;94.47;45.28;;;;;;;4.54;84.57;97806.22;5032023;28;20036;-89
2022/03/02 08:10:36;;;;;;;89.60;46.70;;;;;;;4.77;83.50;97807.16;5046915;28;20040;-89
2022/03/02 08:13:02;;;;;;;120.75;60.22;;;;;;;4.86;81.78;97798.06;5025877;28;20491;-89
2022/03/02 08:15:28;;;;;;;102.28;49.70;;;;;;;4.70;84.17;97797.72;5028623;28;20035;-88
2022/03/02 08:17:55;;;;;;;98.03;49.92;;;;;;;4.85;81.51;97798.97;5029482;28;20549;-87
2022/03/02 08:20:20;;;;;;;98.35;48.40;;;;;;;5.35;78.95;97786.53;5035946;28;20039;-89
2022/03/02 08:22:51;;;;;;;85.80;44.10;;;;;;;6.16;74.69;97798.38;5046276;28;20045;-89
2022/03/02 08:25:21;;;;;;;95.70;49.08;;;;;;;6.83;70.63;97784.94;5030942;28;20029;-89
2022/03/02 08:27:48;;;;;;;91.25;47.83;;;;;;;7.37;68.33;97786.94;5022581;28;20029;-88
2022/03/02 08:30:15;;;;;;;89.18;46.67;;;;;;;7.57;67.22;97776.22;5039644;28;20027;-88
2022/03/02 08:32:43;;;;;;;92.30;49.08;;;;;;;7.66;64.82;97781.13;5039645;28;20025;-88
2022/03/02 08:35:10;;;;;;;94.43;50.10;;;;;;;8.15;64.19;97767.19;5029461;28;20033;-88
2022/03/02 08:37:36;;;;;;;75.40;39.42;;;;;;;8.09;65.25;97788.81;5030908;28;20056;-88
2022/03/02 08:40:03;;;;;;;76.50;40.53;;;;;;;8.13;63.83;97785.06;5017591;28;20497;-88
2022/03/02 08:42:31;;;;;;;75.50;38.85;;;;;;;8.17;62.85;97759.16;5031668;28;20029;-88
2022/03/02 08:44:57;;;;;;;84.05;45.45;;;;;;;7.73;65.12;97779.03;5028561;28;20037;-88
2022/03/02 08:47:23;;;;;;;64.75;35.08;;;;;;;6.90;68.38;97781.06;5023453;28;20397;-87
2022/03/02 08:49:50;;;;;;;77.88;37.38;;;;;;;6.43;70.83;97788.41;5037749;28;20033;-88
2022/03/02 08:52:27;;;;;;;63.15;33.42;;;;;;;6.61;71.08;97785.00;5030456;28;20036;-88
2022/03/02 08:54:53;;;;;;;77.30;40.60;;;;;;;6.34;72.65;97786.13;5039757;28;20408;-87
2022/03/02 08:57:19;;;;;;;91.47;46.53;;;;;;;6.53;71.38;97780.00;5037863;28;20057;-87
2022/03/02 08:59:45;;;;;;;92.22;45.03;;;;;;;6.74;69.58;97770.22;5029714;28;20029;-86
2022/03/02 09:02:24;;;;;;;91.95;48.55;;;;;;;7.22;68.56;97777.00;5021475;28;20051;-87
2022/03/02 09:04:50;;;;;;;71.30;36.13;;;;;;;7.13;67.53;97766.78;5033013;28;20029;-87
2022/03/02 09:07:18;;;;;;;70.97;37.13;;;;;;;7.31;67.27;97768.59;5030373;28;20075;-87
2022/03/02 09:09:44;;;;;;;68.57;34.53;;;;;;;6.41;69.03;97767.22;5048618;28;20063;-87
2022/03/02 09:12:09;;;;;;;75.10;40.00;;;;;;;5.85;71.43;97766.88;5021419;28;20045;-88
2022/03/02 09:14:37;;;;;;;66.65;34.30;;;;;;;6.11;71.32;97775.59;5025501;28;20028;-88
2022/03/02 09:17:05;;;;;;;57.40;32.47;;;;;;;6.80;71.21;97761.16;5022512;28;20029;-87
2022/03/02 09:19:32;;;;;;;61.40;31.33;;;;;;;7.37;67.91;97753.22;5026069;28;20029;-87
2022/03/02 09:21:58;;;;;;;46.38;23.98;;;;;;;7.63;64.13;97736.03;5034349;28;20025;-87
2022/03/02 09:24:27;;;;;;;40.28;22.80;;;;;;;7.48;64.59;97748.25;5019948;28;20073;-87
2022/03/02 09:26:53;;;;;;;35.88;20.48;;;;;;;8.10;61.71;97747.94;5038945;28;20030;-88
2022/03/02 09:29:19;;;;;;;47.58;21.45;;;;;;;8.44;59.27;97728.50;5045452;28;20033;-87
2022/03/02 09:31:49;;;;;;;40.30;21.48;;;;;;;8.47;57.64;97717.69;5032014;28;20032;-87
2022/03/02 09:34:15;;;;;;;35.70;20.60;;;;;;;8.44;58.69;97733.81;5025570;28;20058;-87
2022/03/02 09:36:41;;;;;;;40.13;19.60;;;;;;;8.90;55.80;97724.31;5036107;28;20052;-87
2022/03/02 09:39:09;;;;;;;43.70;22.88;;;;;;;8.79;56.70;97737.38;5026241;28;20539;-87
2022/03/02 09:41:42;;;;;;;40.13;22.35;;;;;;;9.68;54.37;97720.97;5029356;28;20029;-86
2022/03/02 09:44:11;;;;;;;40.20;24.35;;;;;;;9.90;53.97;97708.13;5040573;28;20028;-88
2022/03/02 09:46:38;;;;;;;42.83;23.80;;;;;;;9.74;54.33;97717.97;5018246;28;20049;-87
2022/03/02 09:49:14;;;;;;;60.00;33.35;;;;;;;9.43;54.35;97710.78;5023640;28;20041;-88
2022/03/02 09:51:44;;;;;;;38.15;21.45;;;;;;;9.20;54.61;97706.69;5017053;28;20087;-87
2022/03/02 09:54:10;;;;;;;43.67;25.20;;;;;;;9.22;53.81;97698.59;5023298;28;20029;-87
2022/03/02 09:56:36;;;;;;;33.38;19.58;;;;;;;9.22;53.37;97702.13;5023333;28;20036;-87
2022/03/02 09:59:05;;;;;;;24.92;15.02;;;;;;;8.75;53.26;97694.91;5048139;28;20025;-87
2022/03/02 10:01:33;;;;;;;31.23;18.90;;;;;;;8.69;54.00;97691.66;5033509;28;20029;-87
2022/03/02 10:04:11;;;;;;;35.05;19.83;;;;;;;8.90;54.22;97702.97;5026504;28;20021;-87
2022/03/02 10:06:37;;;;;;;28.60;17.05;;;;;;;9.46;53.47;97699.94;5037754;28;20024;-87
2022/03/02 10:09:03;;;;;;;30.52;17.50;;;;;;;9.47;51.87;97668.75;5021610;28;20049;-87
2022/03/02 10:11:30;;;;;;;60.30;32.17;;;;;;;9.84;51.32;97679.09;5029490;28;20040;-87
2022/03/02 10:13:56;;;;;;;23.25;14.38;;;;;;;10.45;49.95;97656.84;5027257;28;20044;-87
2022/03/02 10:16:27;;;;;;;31.17;16.42;;;;;;;10.89;47.41;97641.63;5030925;28;20029;-86
2022/03/02 10:19:01;;;;;;;23.13;14.77;;;;;;;11.53;46.93;97653.66;5025845;28;20029;-87
2022/03/02 10:21:38;;;;;;;24.85;14.93;;;;;;;11.70;46.12;97643.59;5025883;28;20443;-86
2022/03/02 10:24:04;;;;;;;15.25;9.38;;;;;;;12.14;45.08;97646.03;5016993;28;20083;-88
2022/03/02 10:26:32;;;;;;;10.35;6.82;;;;;;;12.80;41.55;97621.78;5030062;28;20051;-87
2022/03/02 10:29:16;;;;;;;8.05;5.75;;;;;;;12.91;41.07;97615.69;5039410;28;20116;-89
2022/03/02 10:31:42;;;;;;;13.98;8.13;;;;;;;13.43;39.81;97607.47;5034825;28;20033;-87
2022/03/02 10:34:34;;;;;;;10.82;7.75;;;;;;;13.26;40.10;97595.25;5038009;28;20029;-87
2022/03/02 10:37:24;;;;;;;28.23;17.10;;;;;;;13.54;40.06;97594.97;5036822;28;20033;-88
2022/03/02 10:39:54;;;;;;;10.40;6.75;;;;;;;13.04;39.97;97595.06;5019353;28;20495;-88
2022/03/02 10:42:24;;;;;;;11.30;7.93;;;;;;;13.49;41.81;97601.66;5022915;28;20079;-88
2022/03/02 10:45:09;;;;;;;11.88;7.05;;;;;;;13.53;39.67;97584.34;5018317;28;20032;-87
2022/03/02 10:47:46;;;;;;;10.48;7.50;;;;;;;14.95;37.46;97575.25;5027489;28;20061;-88
2022/03/02 10:50:13;;;;;;;14.77;10.45;;;;;;;15.43;38.59;97568.63;5024079;28;20031;-88
2022/03/02 10:52:40;;;;;;;18.42;8.82;;;;;;;16.46;36.70;97570.75;5031651;28;20085;-87
2022/03/02 10:55:08;;;;;;;13.50;9.30;;;;;;;17.62;33.63;97540.72;5031649;28;20025;-86
2022/03/02 10:57:34;;;;;;;11.13;7.13;;;;;;;18.60;30.85;97505.41;5019275;28;20570;-88
2022/03/02 11:00:09;;;;;;;14.45;9.55;;;;;;;18.35;31.17;97512.28;5014929;28;20048;-87
2022/03/02 11:02:39;;;;;;;13.50;8.57;;;;;;;18.57;31.91;97525.53;5041529;28;20029;-87
2022/03/02 11:05:10;;;;;;;12.23;8.32;;;;;;;18.29;31.29;97504.72;5023862;28;20496;-88
2022/03/02 11:07:36;;;;;;;11.80;7.68;;;;;;;17.23;31.57;97498.25;5027397;28;20096;-87
2022/03/02 11:10:04;;;;;;;12.05;8.55;;;;;;;17.14;32.36;97504.50;5024247;28;20143;-87
2022/03/02 11:12:30;;;;;;;11.00;8.10;;;;;;;16.71;33.59;97507.44;5032007;28;20036;-87
2022/03/02 11:15:05;;;;;;;15.05;9.88;;;;;;;15.45;34.45;97498.41;5029158;28;20090;-87
2022/03/02 11:17:30;;;;;;;17.63;9.13;;;;;;;16.48;33.17;97503.16;5024574;28;20039;-86
2022/03/02 11:19:57;;;;;;;16.70;11.50;;;;;;;17.83;32.73;97497.31;5022981;28;20041;-86
2022/03/02 11:22:27;;;;;;;15.95;10.95;;;;;;;18.48;32.54;97488.44;5027869;28;20543;-87
2022/03/02 11:24:57;;;;;;;19.52;11.15;;;;;;;19.01;31.08;97474.34;5030515;28;20024;-88
2022/03/02 11:27:41;;;;;;;13.90;10.02;;;;;;;19.16;29.72;97459.28;5033371;28;20102;-87
2022/03/02 11:30:13;;;;;;;12.88;8.35;;;;;;;18.60;29.19;97453.94;5032347;28;20075;-85
2022/03/02 11:32:42;;;;;;;14.25;9.05;;;;;;;19.95;28.31;97461.22;5041593;28;20041;-87
2022/03/02 11:35:10;;;;;;;17.70;13.02;;;;;;;20.15;27.48;97440.16;5029929;28;20029;-87
2022/03/02 11:37:36;;;;;;;13.38;9.23;;;;;;;20.15;28.17;97444.78;5030445;28;20119;-86
2022/03/02 11:40:06;;;;;;;12.13;9.20;;;;;;;19.18;29.83;97447.28;5030775;28;20477;-87
2022/03/02 11:42:34;;;;;;;14.57;10.68;;;;;;;19.70;29.14;97445.69;5023590;28;20037;-88
2022/03/02 11:45:01;;;;;;;13.07;8.38;;;;;;;19.70;28.05;97436.69;5037257;28;20036;-87
2022/03/02 11:47:41;;;;;;;11.90;8.73;;;;;;;19.26;28.83;97424.81;5022603;28;20094;-86
2022/03/02 11:50:12;;;;;;;12.75;9.90;;;;;;;19.33;27.57;97425.94;5026214;28;20519;-88
2022/03/02 11:52:44;;;;;;;13.90;9.35;;;;;;;18.98;28.12;97410.41;5031882;28;20020;-87
2022/03/02 11:55:12;;;;;;;20.20;13.00;;;;;;;19.69;28.26;97422.28;5023527;28;20028;-87
2022/03/02 11:57:56;;;;;;;14.57;9.85;;;;;;;18.69;28.21;97399.72;5031554;28;20071;-87
2022/03/02 12:00:24;;;;;;;18.85;8.68;;;;;;;15.70;31.50;97423.47;5030428;28;20035;-87